Dunhuang, China
Current Conditions -  °F | °C
As of 12:30 PM on Sunday 23 Nov 2014 (Local Time) from ZWWW Reporting Station
Smoke Smoke  
Wind Chill: 25°   Ceiling: Unl
Heat Index: 30°   Visibility: 2.5mi
Dew Point: 21°   Wind: 4mph
Humidity: 69%   Direction: 330°NNW
Pressure: 30.21"   Gusts: NA
Location:  40.15°N, 94.68°E
Report Text: ZWWW 230430Z 33002MPS 290V040 4000 FU NSC M01/M06 Q1023 NOSIG
Loading
Personal Weather Stations






























Interactive Weather Map New forecast layout! Learn more

10-Day Weather Forecast

Advertisements
Track Severe Weather on mobile